Time;durP1;ratioP1;P1;durP2;ratioP2;P2;SDS_P1;SDS_P2;PMS_P1;PMS_P2;Temp;Humidity;BMP_temperature;BMP_pressure;BME280_temperature;BME280_humidity;BME280_pressure;Samples;Min_cycle;Max_cycle;Signal;HPM_P1;HPM_P2
2021/06/19 00:01:40;;;;;;;8.13;6.43;;;24.00;99.90;;;;;;4991558;28;20185;-67
2021/06/19 00:04:07;;;;;;;10.03;5.13;;;23.90;99.90;;;;;;4991441;28;20214;-67
2021/06/19 00:06:33;;;;;;;12.03;6.00;;;24.00;99.90;;;;;;4992740;28;20175;-67
2021/06/19 00:08:58;;;;;;;7.83;5.30;;;23.90;99.90;;;;;;4992211;28;20513;-68
2021/06/19 00:11:24;;;;;;;9.80;5.63;;;23.80;99.90;;;;;;4990567;28;20187;-67
2021/06/19 00:13:49;;;;;;;12.10;6.90;;;23.80;99.90;;;;;;4992809;28;20661;-67
2021/06/19 00:16:15;;;;;;;8.57;5.77;;;23.80;99.90;;;;;;4991364;28;20187;-68
2021/06/19 00:18:40;;;;;;;12.13;6.83;;;23.70;99.90;;;;;;4992377;28;20179;-67
2021/06/19 00:21:06;;;;;;;8.50;5.93;;;23.70;99.90;;;;;;4991168;28;20172;-67
2021/06/19 00:23:32;;;;;;;19.43;7.90;;;23.70;99.90;;;;;;4992433;28;20215;-67
2021/06/19 00:25:58;;;;;;;10.33;8.13;;;23.50;99.90;;;;;;4992431;28;20168;-66
2021/06/19 00:28:23;;;;;;;18.80;8.20;;;23.30;99.90;;;;;;4992228;28;20539;-67
2021/06/19 00:30:49;;;;;;;13.40;7.93;;;23.10;99.90;;;;;;4992453;28;20505;-66
2021/06/19 00:33:15;;;;;;;16.00;7.27;;;23.00;99.90;;;;;;4992695;28;20183;-66
2021/06/19 00:35:40;;;;;;;13.20;8.03;;;23.00;99.90;;;;;;4991018;28;20458;-66
2021/06/19 00:38:06;;;;;;;20.70;9.67;;;22.90;99.90;;;;;;4992502;28;20456;-67
2021/06/19 00:40:32;;;;;;;9.70;7.00;;;22.50;99.90;;;;;;4992026;28;20271;-67
2021/06/19 00:43:00;;;;;;;12.97;6.10;;;22.00;99.90;;;;;;4992543;28;20567;-67
2021/06/19 00:45:28;;;;;;;9.53;7.07;;;21.50;99.90;;;;;;4992319;28;20569;-67
2021/06/19 00:47:54;;;;;;;15.60;6.77;;;21.20;99.90;;;;;;4992309;28;20466;-67
2021/06/19 00:50:21;;;;;;;8.60;6.47;;;20.90;99.90;;;;;;4991933;28;20429;-67
2021/06/19 00:52:47;;;;;;;12.40;6.80;;;20.80;99.90;;;;;;4992320;28;20418;-68
2021/06/19 00:55:13;;;;;;;10.43;7.20;;;20.80;99.90;;;;;;4992185;28;20572;-67
2021/06/19 00:57:40;;;;;;;13.60;6.53;;;20.70;99.90;;;;;;4992438;28;20457;-68
2021/06/19 01:00:07;;;;;;;10.70;6.57;;;20.70;99.90;;;;;;4991944;28;20419;-67
2021/06/19 01:02:33;;;;;;;9.83;7.23;;;20.80;99.90;;;;;;4990961;28;20937;-67
2021/06/19 01:04:59;;;;;;;9.77;6.30;;;20.90;99.90;;;;;;4992046;28;20454;-66
2021/06/19 01:07:24;;;;;;;10.10;6.90;;;20.90;99.90;;;;;;4989123;28;20196;-67
2021/06/19 01:09:50;;;;;;;13.40;7.23;;;20.90;99.90;;;;;;4972474;28;20693;-67
2021/06/19 01:12:25;;;;;;;11.70;7.87;;;20.90;99.90;;;;;;4972622;28;20177;-67
2021/06/19 01:14:51;;;;;;;12.43;7.63;;;21.00;99.90;;;;;;4972696;28;20226;-67
2021/06/19 01:17:18;;;;;;;15.20;7.30;;;21.00;99.90;;;;;;4972655;28;20929;-66
2021/06/19 01:19:44;;;;;;;13.40;9.20;;;21.10;99.90;;;;;;4971043;28;20427;-67
2021/06/19 01:22:10;;;;;;;8.77;6.47;;;21.20;99.90;;;;;;4972993;28;20936;-67
2021/06/19 01:24:35;;;;;;;10.60;7.87;;;21.40;99.90;;;;;;4975974;28;20231;-67
2021/06/19 01:27:01;;;;;;;10.40;7.30;;;21.40;99.90;;;;;;4975906;28;20467;-67
2021/06/19 01:29:27;;;;;;;8.70;7.90;;;21.40;99.90;;;;;;4975783;28;20172;-67
2021/06/19 01:31:53;;;;;;;10.97;7.57;;;21.40;99.90;;;;;;4976032;28;20168;-66
2021/06/19 01:34:18;;;;;;;9.33;8.43;;;21.50;99.90;;;;;;4975845;28;20192;-67
2021/06/19 01:36:44;;;;;;;9.30;7.30;;;21.60;99.90;;;;;;4975762;28;20422;-67
2021/06/19 01:39:09;;;;;;;11.37;8.93;;;21.70;99.90;;;;;;4975558;28;20364;-66
2021/06/19 01:41:35;;;;;;;16.73;9.50;;;21.80;99.90;;;;;;4975947;28;20171;-67
2021/06/19 01:44:02;;;;;;;11.20;8.03;;;21.80;99.90;;;;;;4974490;28;20200;-66
2021/06/19 01:46:29;;;;;;;12.50;8.30;;;21.80;99.90;;;;;;4975698;28;20208;-67
2021/06/19 01:48:54;;;;;;;12.20;8.20;;;21.90;99.90;;;;;;4975449;28;20466;-66
2021/06/19 01:51:20;;;;;;;10.20;7.83;;;21.90;99.90;;;;;;4975541;28;20416;-67
2021/06/19 01:53:48;;;;;;;15.23;8.63;;;21.80;99.90;;;;;;4975559;28;20196;-67
2021/06/19 01:56:15;;;;;;;12.10;8.23;;;21.70;99.90;;;;;;4975842;28;20168;-67
2021/06/19 01:58:41;;;;;;;12.43;8.17;;;21.70;99.90;;;;;;4975334;28;20426;-66
2021/06/19 02:01:10;;;;;;;11.13;9.17;;;21.70;99.90;;;;;;4975507;28;20415;-66
2021/06/19 02:03:36;;;;;;;14.23;9.00;;;21.80;99.90;;;;;;4975365;28;20443;-66
2021/06/19 02:06:01;;;;;;;16.50;8.93;;;21.70;99.90;;;;;;4975294;28;20459;-66
2021/06/19 02:08:27;;;;;;;12.73;8.40;;;21.40;99.90;;;;;;4986304;28;20506;-66
2021/06/19 02:10:53;;;;;;;15.17;10.30;;;21.30;99.90;;;;;;4994743;28;20171;-67
2021/06/19 02:13:19;;;;;;;11.03;9.63;;;21.20;99.90;;;;;;4994568;28;20179;-67
2021/06/19 02:15:46;;;;;;;10.53;9.43;;;21.20;99.90;;;;;;4995094;28;20245;-67
2021/06/19 02:18:13;;;;;;;12.20;10.20;;;21.20;99.90;;;;;;4994474;28;20713;-67
2021/06/19 02:20:39;;;;;;;15.10;9.97;;;21.30;99.90;;;;;;4994348;28;20414;-67
2021/06/19 02:23:04;;;;;;;15.10;9.93;;;21.20;99.90;;;;;;4994452;28;20765;-67
2021/06/19 02:25:31;;;;;;;12.17;10.10;;;21.10;99.90;;;;;;4994302;28;20631;-67
2021/06/19 02:28:09;;;;;;;12.07;10.57;;;21.10;99.90;;;;;;4994425;28;20203;-67
2021/06/19 02:30:35;;;;;;;12.60;10.60;;;21.00;99.90;;;;;;4994207;28;20415;-66
2021/06/19 02:33:02;;;;;;;15.53;10.67;;;20.90;99.90;;;;;;4993504;28;20477;-67
2021/06/19 02:35:29;;;;;;;14.33;10.73;;;20.80;99.90;;;;;;4994279;28;20438;-67
2021/06/19 02:37:56;;;;;;;14.93;9.60;;;20.80;99.90;;;;;;4994356;28;20595;-66
2021/06/19 02:40:22;;;;;;;12.50;9.80;;;20.90;99.90;;;;;;4994030;28;20803;-67
2021/06/19 02:42:47;;;;;;;15.03;10.20;;;20.90;99.90;;;;;;4994076;28;20427;-67
2021/06/19 02:45:14;;;;;;;16.30;11.17;;;20.90;99.90;;;;;;4994064;28;20192;-67
2021/06/19 02:47:47;;;;;;;13.20;11.20;;;20.90;99.90;;;;;;4993835;28;20191;-66
2021/06/19 02:50:15;;;;;;;20.73;10.10;;;20.90;99.90;;;;;;4993741;28;20920;-66
2021/06/19 02:52:42;;;;;;;16.87;10.60;;;21.00;99.90;;;;;;4994097;28;20423;-66
2021/06/19 02:55:13;;;;;;;19.13;11.47;;;21.10;99.90;;;;;;4993891;28;21106;-66
2021/06/19 02:57:39;;;;;;;14.23;9.10;;;21.20;99.90;;;;;;4993814;28;20415;-67
2021/06/19 03:00:06;;;;;;;13.13;11.87;;;21.20;99.90;;;;;;4993515;28;20858;-66
2021/06/19 03:02:32;;;;;;;12.23;10.40;;;21.20;99.90;;;;;;4994300;28;20673;-66
2021/06/19 03:04:57;;;;;;;11.10;9.90;;;21.30;99.90;;;;;;4993701;28;20446;-67
2021/06/19 03:07:23;;;;;;;11.07;9.67;;;21.30;99.90;;;;;;4990942;28;20207;-66
2021/06/19 03:09:48;;;;;;;13.60;9.47;;;21.40;99.90;;;;;;4973894;28;20172;-67
2021/06/19 03:12:14;;;;;;;15.40;9.73;;;21.40;99.90;;;;;;4974175;28;20251;-67
2021/06/19 03:14:40;;;;;;;11.57;10.37;;;21.50;99.90;;;;;;4972672;28;20557;-66
2021/06/19 03:17:05;;;;;;;12.60;10.43;;;21.50;99.90;;;;;;4972848;28;20642;-66
2021/06/19 03:19:31;;;;;;;12.30;10.10;;;21.60;99.90;;;;;;4973991;28;20430;-67
2021/06/19 03:22:01;;;;;;;13.87;9.90;;;21.70;99.90;;;;;;4973993;28;20180;-68
2021/06/19 03:24:27;;;;;;;13.87;9.77;;;21.70;99.90;;;;;;4973691;28;20207;-67
2021/06/19 03:26:54;;;;;;;11.37;10.17;;;21.70;99.90;;;;;;4973823;28;20995;-67
2021/06/19 03:29:19;;;;;;;14.83;9.90;;;21.70;99.90;;;;;;4973381;28;20420;-67
2021/06/19 03:31:45;;;;;;;13.27;10.07;;;21.60;99.90;;;;;;4973855;28;20426;-66
2021/06/19 03:34:11;;;;;;;16.67;9.77;;;21.60;99.90;;;;;;4973665;28;20188;-66
2021/06/19 03:36:36;;;;;;;14.17;11.10;;;21.60;99.90;;;;;;4974274;28;20176;-66
2021/06/19 03:39:03;;;;;;;11.00;10.03;;;21.60;99.90;;;;;;4973261;28;20176;-66
2021/06/19 03:41:29;;;;;;;17.87;10.77;;;21.70;99.90;;;;;;4972508;28;20181;-67
2021/06/19 03:43:54;;;;;;;13.87;11.20;;;21.80;99.90;;;;;;4973476;28;20451;-67
2021/06/19 03:46:20;;;;;;;12.30;9.77;;;21.70;99.90;;;;;;4972316;28;20183;-67
2021/06/19 03:48:45;;;;;;;13.00;9.53;;;21.70;99.90;;;;;;4973247;28;20308;-67
2021/06/19 03:51:11;;;;;;;11.83;10.40;;;21.70;99.90;;;;;;4973657;28;20254;-67
2021/06/19 03:53:37;;;;;;;15.90;10.27;;;21.70;99.90;;;;;;4973437;28;20337;-67
2021/06/19 03:56:02;;;;;;;10.10;8.70;;;21.70;99.90;;;;;;4973427;28;20426;-67
2021/06/19 03:58:28;;;;;;;13.83;9.43;;;21.50;99.90;;;;;;4973077;28;20176;-67
2021/06/19 04:00:53;;;;;;;14.87;9.87;;;21.40;99.90;;;;;;4973338;28;20666;-66
2021/06/19 04:03:19;;;;;;;14.40;9.80;;;21.50;99.90;;;;;;4973373;28;20187;-67
2021/06/19 04:05:44;;;;;;;11.67;10.57;;;21.60;99.90;;;;;;4973341;28;20239;-67
2021/06/19 04:08:10;;;;;;;16.73;10.20;;;21.70;99.90;;;;;;4972394;28;20196;-66
2021/06/19 04:10:35;;;;;;;20.00;10.30;;;21.70;99.90;;;;;;4986929;28;20172;-67
2021/06/19 04:13:01;;;;;;;17.03;11.30;;;21.70;99.90;;;;;;4992696;28;20176;-67
2021/06/19 04:15:27;;;;;;;18.47;10.00;;;21.80;99.90;;;;;;4992618;28;20652;-67
2021/06/19 04:17:52;;;;;;;13.93;10.73;;;21.80;99.90;;;;;;4992628;28;20171;-66
2021/06/19 04:20:18;;;;;;;13.43;10.53;;;21.80;99.90;;;;;;4992299;28;20172;-67
2021/06/19 04:22:44;;;;;;;13.77;10.57;;;21.80;99.90;;;;;;4992655;28;20613;-67
2021/06/19 04:25:11;;;;;;;13.47;11.57;;;21.80;99.90;;;;;;4991788;28;20234;-67
2021/06/19 04:28:04;;;;;;;14.03;10.57;;;21.90;99.90;;;;;;4983769;28;20459;-67
2021/06/19 04:30:31;;;;;;;16.13;10.30;;;21.90;99.90;;;;;;4986243;28;20424;-67
2021/06/19 04:32:57;;;;;;;13.10;10.90;;;21.90;99.90;;;;;;4988153;28;20462;-67
2021/06/19 04:35:24;;;;;;;18.57;10.93;;;22.00;99.90;;;;;;4992618;28;20442;-67
2021/06/19 04:37:50;;;;;;;11.90;10.63;;;22.00;99.90;;;;;;4991216;28;20438;-67
2021/06/19 04:41:23;;;;;;;13.70;10.27;;;22.00;99.90;;;;;;4991807;28;20429;-67
2021/06/19 04:43:12;;;;;;;13.30;11.40;;;22.30;99.90;;;;;;4963990;28;20454;-67
2021/06/19 04:45:38;;;;;;;15.27;13.00;;;22.30;99.90;;;;;;4992117;28;20927;-67
2021/06/19 04:48:06;;;;;;;21.60;11.73;;;22.40;99.90;;;;;;4992289;28;20203;-68
2021/06/19 04:50:33;;;;;;;13.80;10.60;;;22.70;99.90;;;;;;4992167;28;20418;-67
2021/06/19 04:53:00;;;;;;;12.10;10.80;;;22.90;99.90;;;;;;4992306;28;20411;-67
2021/06/19 04:55:26;;;;;;;13.40;12.03;;;23.00;99.90;;;;;;4992141;28;20442;-67
2021/06/19 04:57:56;;;;;;;12.93;11.63;;;23.10;99.90;;;;;;4995320;28;20477;-66
2021/06/19 05:00:23;;;;;;;16.17;11.60;;;23.30;99.90;;;;;;4995797;28;20431;-67
2021/06/19 05:02:49;;;;;;;14.03;10.63;;;23.60;99.90;;;;;;4996027;28;20426;-67
2021/06/19 05:05:15;;;;;;;11.63;10.73;;;23.50;99.90;;;;;;4995730;28;20504;-66
2021/06/19 05:07:41;;;;;;;17.07;13.03;;;23.50;99.90;;;;;;4994519;28;20677;-66
2021/06/19 05:10:08;;;;;;;20.67;11.27;;;23.40;99.90;;;;;;4995670;28;20164;-67
2021/06/19 05:12:34;;;;;;;13.47;11.57;;;23.40;99.90;;;;;;4990365;28;20497;-67
2021/06/19 05:15:01;;;;;;;11.87;10.63;;;23.10;99.90;;;;;;4977572;28;20443;-66
2021/06/19 05:17:30;;;;;;;17.77;12.60;;;23.30;99.90;;;;;;4992963;28;20462;-68
2021/06/19 05:19:56;;;;;;;11.83;10.70;;;23.40;99.90;;;;;;4994111;28;20852;-66
2021/06/19 05:22:23;;;;;;;15.23;11.30;;;23.60;99.90;;;;;;4976029;28;20462;-66
2021/06/19 05:24:48;;;;;;;16.30;11.47;;;23.90;99.90;;;;;;4975990;28;20459;-65
2021/06/19 05:27:14;;;;;;;18.00;11.40;;;24.20;99.90;;;;;;4976129;28;20459;-66
2021/06/19 05:29:39;;;;;;;11.90;10.80;;;24.40;99.90;;;;;;4976232;28;20172;-66
2021/06/19 05:32:06;;;;;;;17.17;9.60;;;24.60;99.90;;;;;;4975998;28;20169;-67
2021/06/19 05:34:32;;;;;;;12.50;9.90;;;24.70;99.90;;;;;;4983366;28;20196;-67
2021/06/19 05:36:57;;;;;;;14.43;10.40;;;24.90;99.90;;;;;;4975877;28;20432;-67
2021/06/19 05:39:23;;;;;;;13.00;10.73;;;25.00;99.90;;;;;;4975584;28;20434;-67
2021/06/19 05:41:48;;;;;;;14.80;10.03;;;25.20;99.90;;;;;;4975765;28;20204;-67
2021/06/19 05:44:15;;;;;;;12.20;11.10;;;25.20;99.90;;;;;;4989787;28;20204;-67
2021/06/19 05:46:40;;;;;;;11.50;10.30;;;25.20;99.90;;;;;;4995175;28;20175;-67
2021/06/19 05:49:07;;;;;;;12.20;10.47;;;25.30;99.90;;;;;;4994798;28;20415;-67
2021/06/19 05:51:33;;;;;;;11.70;10.60;;;25.30;99.90;;;;;;4991965;28;20176;-67
2021/06/19 05:53:59;;;;;;;12.17;10.83;;;25.40;99.90;;;;;;4995011;28;20951;-67
2021/06/19 05:56:25;;;;;;;14.77;10.80;;;25.50;99.90;;;;;;4995000;28;20474;-67
2021/06/19 05:58:50;;;;;;;11.73;10.53;;;25.60;99.90;;;;;;4994665;28;20429;-67
2021/06/19 06:01:16;;;;;;;10.80;9.70;;;25.60;99.90;;;;;;4977126;28;20176;-67
2021/06/19 06:03:42;;;;;;;11.80;10.60;;;25.70;99.90;;;;;;4994359;28;20187;-66
2021/06/19 06:06:07;;;;;;;11.83;10.83;;;25.90;99.90;;;;;;4981167;28;20219;-67
2021/06/19 06:08:33;;;;;;;14.60;10.10;;;26.00;99.90;;;;;;4973820;28;20199;-67
2021/06/19 06:10:58;;;;;;;11.23;10.23;;;26.20;99.90;;;;;;4975356;28;20264;-67
2021/06/19 06:13:24;;;;;;;11.10;8.90;;;26.30;99.90;;;;;;4975532;28;20172;-67
2021/06/19 06:15:50;;;;;;;12.67;9.57;;;26.40;99.90;;;;;;4975251;28;20172;-67
2021/06/19 06:18:16;;;;;;;13.23;9.77;;;26.70;99.90;;;;;;4974956;28;20177;-67
2021/06/19 06:20:41;;;;;;;9.83;8.93;;;27.00;99.90;;;;;;4974961;28;20784;-67
2021/06/19 06:23:07;;;;;;;10.77;9.67;;;27.00;99.90;;;;;;4974955;28;20176;-67
2021/06/19 06:25:33;;;;;;;11.03;9.30;;;27.20;99.90;;;;;;4975000;28;20200;-66
2021/06/19 06:27:58;;;;;;;10.83;9.23;;;27.40;99.90;;;;;;4974794;28;20204;-67
2021/06/19 06:30:24;;;;;;;13.13;9.17;;;27.40;99.90;;;;;;4974755;28;20501;-66
2021/06/19 06:32:50;;;;;;;10.17;9.27;;;27.50;99.90;;;;;;4981211;28;20176;-67
2021/06/19 06:35:16;;;;;;;10.80;7.70;;;27.70;99.90;;;;;;4990769;28;20213;-66
2021/06/19 06:37:42;;;;;;;10.60;9.50;;;27.90;99.90;;;;;;5000042;28;20430;-66
2021/06/19 06:40:10;;;;;;;11.90;10.70;;;28.00;99.90;;;;;;5003148;28;20261;-67
2021/06/19 06:42:40;;;;;;;10.57;9.53;;;27.80;99.90;;;;;;5012349;28;20438;-67
2021/06/19 06:45:07;;;;;;;10.33;9.30;;;27.90;99.90;;;;;;5010346;28;20457;-66
2021/06/19 06:47:32;;;;;;;9.00;8.20;;;27.90;99.90;;;;;;5012993;28;20457;-67
2021/06/19 06:49:58;;;;;;;12.60;9.30;;;28.00;99.90;;;;;;5000291;28;20770;-67
2021/06/19 06:52:23;;;;;;;8.83;7.93;;;28.20;99.90;;;;;;5011008;28;20179;-66
2021/06/19 06:54:49;;;;;;;10.23;9.33;;;28.40;99.90;;;;;;4998989;28;20732;-66
2021/06/19 06:57:15;;;;;;;9.23;8.33;;;28.40;99.90;;;;;;5001309;28;20186;-66
2021/06/19 06:59:41;;;;;;;10.90;8.70;;;28.40;99.90;;;;;;4998207;28;20267;-66
2021/06/19 07:02:07;;;;;;;10.30;8.23;;;28.50;99.90;;;;;;4997757;28;20185;-66
2021/06/19 07:04:32;;;;;;;9.13;8.33;;;28.60;99.90;;;;;;5012986;28;20450;-66
2021/06/19 07:06:58;;;;;;;12.60;7.97;;;28.50;99.90;;;;;;4994719;28;20666;-66
2021/06/19 07:09:23;;;;;;;11.20;8.60;;;28.50;99.90;;;;;;4993438;28;20251;-67
2021/06/19 07:11:49;;;;;;;9.30;8.40;;;28.60;99.90;;;;;;4982231;28;20195;-67
2021/06/19 07:14:14;;;;;;;10.87;8.20;;;28.60;99.90;;;;;;4978753;28;20573;-67
2021/06/19 07:16:40;;;;;;;9.83;7.40;;;28.70;99.90;;;;;;5007117;28;20258;-66
2021/06/19 07:19:05;;;;;;;11.47;8.00;;;28.80;99.90;;;;;;5000546;28;20190;-67
2021/06/19 07:21:31;;;;;;;8.13;7.00;;;29.00;99.90;;;;;;4993432;28;20582;-65
2021/06/19 07:23:56;;;;;;;9.07;7.63;;;29.10;99.90;;;;;;4993124;28;20223;-65
2021/06/19 07:26:22;;;;;;;11.10;8.10;;;29.40;99.90;;;;;;4993383;28;20175;-66
2021/06/19 07:28:48;;;;;;;8.93;7.93;;;29.60;99.90;;;;;;4991663;28;20262;-65
2021/06/19 07:31:14;;;;;;;17.03;8.00;;;29.90;99.90;;;;;;4990847;28;20450;-66
2021/06/19 07:33:39;;;;;;;9.00;7.27;;;30.20;99.90;;;;;;4993415;28;20222;-65
2021/06/19 07:36:05;;;;;;;8.03;7.43;;;30.50;99.90;;;;;;4992504;28;20182;-66
2021/06/19 07:38:32;;;;;;;8.97;7.53;;;30.70;99.90;;;;;;4992861;28;20175;-66
2021/06/19 07:40:59;;;;;;;9.00;7.67;;;30.80;99.90;;;;;;4992260;28;20222;-65
2021/06/19 07:43:26;;;;;;;9.30;7.97;;;30.80;99.90;;;;;;4992950;28;20909;-65
2021/06/19 07:45:53;;;;;;;7.90;7.13;;;31.00;99.90;;;;;;4991622;28;20422;-66
2021/06/19 07:48:19;;;;;;;10.43;7.23;;;31.00;99.40;;;;;;4973321;28;20555;-66
2021/06/19 07:50:45;;;;;;;8.47;7.70;;;30.90;99.10;;;;;;4973442;28;20415;-65
2021/06/19 07:53:11;;;;;;;9.83;8.47;;;30.70;99.20;;;;;;4973461;28;20428;-65
2021/06/19 07:55:37;;;;;;;9.47;7.70;;;30.90;99.00;;;;;;4973301;28;20415;-66
2021/06/19 07:58:04;;;;;;;13.30;8.17;;;31.20;98.40;;;;;;4989801;28;20446;-66
2021/06/19 08:00:30;;;;;;;9.03;8.10;;;31.20;98.10;;;;;;4992498;28;20178;-65
2021/06/19 08:02:59;;;;;;;11.97;7.63;;;31.40;97.90;;;;;;4992745;28;20501;-65
2021/06/19 08:05:25;;;;;;;7.47;6.87;;;31.60;97.60;;;;;;4986321;28;20446;-65
2021/06/19 08:07:51;;;;;;;9.33;7.53;;;31.90;97.00;;;;;;4973148;28;20550;-65
2021/06/19 08:10:16;;;;;;;10.23;7.00;;;32.20;96.10;;;;;;4973066;28;20499;-68
2021/06/19 08:12:42;;;;;;;21.23;12.00;;;32.30;95.60;;;;;;4973092;28;20593;-66
2021/06/19 08:15:08;;;;;;;8.73;7.83;;;32.70;94.60;;;;;;4977019;28;20210;-65
2021/06/19 08:17:34;;;;;;;12.03;9.00;;;32.80;93.60;;;;;;4992685;28;20641;-65
2021/06/19 08:19:59;;;;;;;8.80;8.00;;;32.90;93.40;;;;;;4992356;28;20458;-66
2021/06/19 08:22:25;;;;;;;12.80;8.70;;;32.90;92.80;;;;;;4992435;28;20675;-66
2021/06/19 08:24:50;;;;;;;9.10;8.20;;;33.00;93.20;;;;;;4992428;28;20285;-67
2021/06/19 08:27:22;;;;;;;9.47;8.50;;;33.30;92.80;;;;;;4992299;28;20266;-65
2021/06/19 08:29:48;;;;;;;10.70;9.63;;;33.60;92.00;;;;;;4992424;28;20259;-66
2021/06/19 08:32:14;;;;;;;11.73;8.87;;;33.60;91.50;;;;;;4994739;28;20932;-65
2021/06/19 08:34:40;;;;;;;9.93;7.93;;;33.80;91.10;;;;;;4996302;28;20183;-66
2021/06/19 08:37:06;;;;;;;9.33;8.30;;;33.80;90.80;;;;;;4996437;28;20422;-66
2021/06/19 08:39:31;;;;;;;12.90;7.90;;;33.60;90.90;;;;;;4996111;28;20225;-65
2021/06/19 08:41:58;;;;;;;9.10;8.50;;;33.40;91.50;;;;;;4977122;28;20440;-65
2021/06/19 08:44:25;;;;;;;8.10;7.50;;;33.40;90.80;;;;;;4976796;28;20283;-65
2021/06/19 08:46:51;;;;;;;10.73;8.40;;;33.00;90.70;;;;;;4991130;28;20801;-64
2021/06/19 08:49:19;;;;;;;13.53;9.40;;;32.50;91.40;;;;;;4995836;28;20418;-65
2021/06/19 08:51:45;;;;;;;10.20;9.27;;;32.30;91.80;;;;;;4995996;28;20438;-65
2021/06/19 08:54:12;;;;;;;12.43;8.53;;;32.80;91.90;;;;;;4996113;28;20978;-65
2021/06/19 08:56:39;;;;;;;9.27;8.40;;;32.80;91.80;;;;;;4996033;28;20504;-65
2021/06/19 08:59:05;;;;;;;10.13;9.23;;;32.50;92.20;;;;;;4995806;28;21037;-64
2021/06/19 09:01:30;;;;;;;9.73;8.93;;;33.00;92.50;;;;;;4996033;28;20489;-64
2021/06/19 09:03:56;;;;;;;11.00;8.10;;;33.30;90.40;;;;;;4995867;28;20191;-66
2021/06/19 09:06:27;;;;;;;10.70;9.80;;;33.60;90.60;;;;;;4995995;28;20171;-64
2021/06/19 09:09:07;;;;;;;11.07;9.10;;;33.50;90.50;;;;;;4995483;28;20637;-65
2021/06/19 09:11:48;;;;;;;20.03;10.20;;;33.80;90.60;;;;;;4996365;28;20777;-65
2021/06/19 09:14:19;;;;;;;10.70;8.53;;;33.80;90.70;;;;;;4995871;28;20438;-65
2021/06/19 09:17:04;;;;;;;9.77;8.90;;;33.50;90.90;;;;;;4995779;28;20497;-65
2021/06/19 09:19:38;;;;;;;11.40;9.30;;;33.70;89.60;;;;;;4995306;28;20469;-65
2021/06/19 09:22:11;;;;;;;10.77;9.50;;;33.80;88.90;;;;;;4995896;28;20556;-65
2021/06/19 09:24:47;;;;;;;9.87;8.40;;;33.80;89.90;;;;;;4995480;28;20548;-64
2021/06/19 09:27:39;;;;;;;10.20;9.20;;;34.40;88.60;;;;;;4995506;28;20792;-65
2021/06/19 09:30:06;;;;;;;10.63;8.53;;;34.50;87.70;;;;;;4995257;28;20462;-66
2021/06/19 09:32:32;;;;;;;11.47;8.63;;;34.70;86.20;;;;;;4995472;28;20513;-66
2021/06/19 09:35:10;;;;;;;9.50;8.30;;;34.70;85.00;;;;;;4995298;28;21039;-65
2021/06/19 09:37:38;;;;;;;12.03;8.67;;;34.30;84.00;;;;;;4996042;28;20204;-66
2021/06/19 09:40:18;;;;;;;9.87;8.70;;;34.40;85.90;;;;;;4995096;28;20932;-66
2021/06/19 09:42:44;;;;;;;10.77;9.77;;;34.70;83.10;;;;;;4995206;28;20446;-66
2021/06/19 09:45:18;;;;;;;9.30;7.57;;;34.60;83.50;;;;;;4995189;28;20520;-65
2021/06/19 09:47:43;;;;;;;13.97;8.93;;;35.20;83.10;;;;;;4995177;28;20203;-66
2021/06/19 09:50:09;;;;;;;11.30;9.80;;;35.50;82.70;;;;;;4994803;28;20407;-66
2021/06/19 09:52:35;;;;;;;9.90;8.13;;;35.60;80.50;;;;;;4995055;28;20267;-66
2021/06/19 09:55:00;;;;;;;12.03;10.30;;;35.70;80.20;;;;;;4994887;28;20886;-66
2021/06/19 09:57:44;;;;;;;12.63;10.33;;;35.80;79.40;;;;;;4995031;28;20180;-65
2021/06/19 10:00:15;;;;;;;11.83;8.80;;;35.70;78.80;;;;;;4994649;28;20177;-67
2021/06/19 10:02:42;;;;;;;14.10;8.80;;;36.10;76.70;;;;;;4995023;28;20423;-63
2021/06/19 10:05:08;;;;;;;11.07;9.60;;;37.00;77.10;;;;;;4994743;28;20962;-64
2021/06/19 10:07:35;;;;;;;10.63;9.57;;;37.10;75.80;;;;;;4994758;28;20816;-63
2021/06/19 10:10:04;;;;;;;10.77;8.90;;;37.50;75.30;;;;;;4994496;28;20785;-64
2021/06/19 10:12:32;;;;;;;12.83;8.33;;;37.80;73.60;;;;;;4994073;28;20407;-64
2021/06/19 10:14:59;;;;;;;12.70;8.80;;;37.90;70.80;;;;;;4994653;28;20442;-66
2021/06/19 10:17:30;;;;;;;13.27;8.07;;;37.70;71.30;;;;;;4994706;28;20422;-67
2021/06/19 10:19:57;;;;;;;11.80;7.90;;;38.10;69.10;;;;;;4992996;28;20445;-65
2021/06/19 10:22:26;;;;;;;10.17;8.40;;;37.70;67.50;;;;;;4975075;28;20925;-63
2021/06/19 10:24:53;;;;;;;8.87;8.03;;;37.80;67.00;;;;;;4974793;28;20673;-64
2021/06/19 10:27:19;;;;;;;9.13;8.43;;;37.70;66.60;;;;;;4975067;28;20455;-63
2021/06/19 10:29:46;;;;;;;11.73;8.23;;;37.90;67.50;;;;;;4974702;28;20419;-63
2021/06/19 10:32:12;;;;;;;11.17;9.07;;;37.50;66.70;;;;;;4975054;28;20424;-65
2021/06/19 10:34:38;;;;;;;12.47;8.23;;;37.90;67.30;;;;;;4974842;28;20441;-66
2021/06/19 10:37:09;;;;;;;11.13;8.40;;;38.60;64.50;;;;;;4975271;28;20470;-65
2021/06/19 10:39:40;;;;;;;13.43;9.20;;;38.60;64.00;;;;;;4974502;28;20456;-66
2021/06/19 10:42:25;;;;;;;13.10;8.50;;;38.50;63.70;;;;;;4974735;28;20481;-66
2021/06/19 10:44:51;;;;;;;15.03;9.40;;;38.30;63.10;;;;;;4974771;28;20435;-66
2021/06/19 10:47:24;;;;;;;9.90;8.90;;;38.50;64.80;;;;;;4974612;28;20530;-64
2021/06/19 10:49:50;;;;;;;17.07;8.90;;;39.20;63.10;;;;;;4973022;28;20188;-63
2021/06/19 10:52:34;;;;;;;13.23;7.50;;;38.70;61.50;;;;;;4974580;28;20502;-63
2021/06/19 10:55:18;;;;;;;13.27;8.97;;;39.20;59.70;;;;;;4973854;28;20832;-63
2021/06/19 10:57:52;;;;;;;9.47;8.50;;;39.60;59.80;;;;;;4974549;28;20467;-63
2021/06/19 11:00:42;;;;;;;9.40;8.40;;;39.90;58.90;;;;;;4973950;28;20530;-63
2021/06/19 11:03:07;;;;;;;9.63;7.10;;;39.30;58.30;;;;;;4974432;28;20420;-64
2021/06/19 11:05:45;;;;;;;8.40;7.27;;;39.10;56.90;;;;;;4974190;28;20955;-64
2021/06/19 11:08:15;;;;;;;9.93;6.60;;;38.50;57.70;;;;;;4974183;28;20206;-63
2021/06/19 11:10:47;;;;;;;10.90;8.10;;;38.70;57.10;;;;;;4973961;28;20430;-63
2021/06/19 11:13:30;;;;;;;9.97;7.83;;;39.10;56.70;;;;;;4974259;28;20498;-63
2021/06/19 11:16:04;;;;;;;11.63;9.43;;;39.80;55.40;;;;;;4974105;28;20424;-64
2021/06/19 11:18:48;;;;;;;8.17;7.30;;;40.40;53.90;;;;;;4973858;28;20423;-64
2021/06/19 11:21:18;;;;;;;8.30;6.87;;;41.40;52.80;;;;;;4985432;28;20477;-63
2021/06/19 11:24:02;;;;;;;10.47;8.33;;;41.10;51.50;;;;;;4993269;28;20462;-64
2021/06/19 11:27:00;;;;;;;8.20;7.17;;;41.40;51.50;;;;;;4993354;28;20449;-64
2021/06/19 11:29:36;;;;;;;13.40;7.67;;;43.00;50.40;;;;;;4992995;28;20427;-64
2021/06/19 11:32:23;;;;;;;10.70;7.37;;;43.30;47.30;;;;;;4993314;28;20939;-64
2021/06/19 11:34:50;;;;;;;9.40;7.37;;;42.60;48.20;;;;;;4993173;28;20438;-65
2021/06/19 11:37:16;;;;;;;9.17;7.20;;;43.10;48.00;;;;;;4993157;28;20449;-64
2021/06/19 11:39:42;;;;;;;9.03;7.70;;;43.40;46.60;;;;;;4993377;28;20493;-64
2021/06/19 11:42:08;;;;;;;9.57;7.50;;;42.60;46.60;;;;;;4993006;28;20175;-63
2021/06/19 11:44:38;;;;;;;7.77;6.87;;;42.80;47.10;;;;;;4993016;28;20622;-64
2021/06/19 11:47:07;;;;;;;8.60;7.10;;;44.00;45.70;;;;;;4992985;28;20481;-64
2021/06/19 11:49:35;;;;;;;8.00;6.50;;;44.70;44.70;;;;;;4992705;28;20415;-65
2021/06/19 11:52:01;;;;;;;8.67;7.80;;;45.00;43.90;;;;;;4992932;28;20842;-64
2021/06/19 11:54:27;;;;;;;12.67;8.10;;;44.20;44.80;;;;;;4992746;28;20517;-65
2021/06/19 11:56:54;;;;;;;11.40;7.87;;;44.20;43.80;;;;;;4992850;28;20846;-64
2021/06/19 11:59:21;;;;;;;9.33;6.97;;;44.00;44.10;;;;;;4991267;28;20265;-64
2021/06/19 12:01:49;;;;;;;10.10;7.00;;;43.90;43.20;;;;;;4992881;28;20434;-64
2021/06/19 12:04:20;;;;;;;11.90;7.10;;;43.80;43.90;;;;;;4992757;28;20971;-63
2021/06/19 12:06:55;;;;;;;7.60;6.03;;;43.70;41.80;;;;;;4991736;28;20882;-63
2021/06/19 12:09:34;;;;;;;13.73;8.00;;;42.70;40.40;;;;;;4992446;28;20508;-64
2021/06/19 12:12:02;;;;;;;9.77;7.07;;;40.20;43.80;;;;;;4992700;28;20426;-63
2021/06/19 12:14:37;;;;;;;10.47;6.67;;;40.10;44.10;;;;;;4992605;28;20816;-64
2021/06/19 12:17:06;;;;;;;12.50;6.77;;;40.90;43.10;;;;;;4992656;28;20418;-64
2021/06/19 12:19:34;;;;;;;11.70;6.43;;;41.70;42.40;;;;;;4992171;28;20557;-64
2021/06/19 12:22:06;;;;;;;10.53;6.53;;;40.90;41.40;;;;;;4974589;28;20796;-64
2021/06/19 12:24:42;;;;;;;9.17;6.00;;;42.50;41.70;;;;;;4973012;28;20491;-64
2021/06/19 12:27:17;;;;;;;6.97;5.77;;;43.40;40.90;;;;;;4973015;28;20970;-64
2021/06/19 12:29:45;;;;;;;8.10;7.30;;;43.70;40.40;;;;;;4972848;28;20412;-64
2021/06/19 12:32:35;;;;;;;9.20;6.53;;;44.40;39.70;;;;;;4973117;28;20423;-64
2021/06/19 12:35:06;;;;;;;6.27;5.67;;;44.30;39.10;;;;;;4972992;28;20440;-64
2021/06/19 12:37:38;;;;;;;11.60;6.93;;;43.80;38.40;;;;;;4973175;28;20766;-64
2021/06/19 12:40:08;;;;;;;9.20;6.00;;;44.80;38.10;;;;;;4972809;28;20747;-64